Pagrindinis puslapis
METAR-TAF:

METAR-TAF

Oro uostai :

Žakarepagva oro uostas

Rio de Žaneiras, Rio de Janeiro, Brazilija

platuma: 22-59S, ilguma: 043-22W, Aukštis: 3 m

Dabartinis oras

Ataskaita buvo paskelbta 6 valandos ir 6 minutes, ne 21:00 UTC
Vėjas 5 kt iš Pietryčių
Temperatūra 24°C
Drėgmė 69%
Slėgis 1008 hPa
Matomumas 10 km arba daugiau
Mažai debesys ne aukštis 3000 ft

METAR: SBJR 182100Z 13005KT 9999 FEW030 24/18 Q1008

Laikas: 00:06 (03:06 UTC)


TAF: trūkstamas

Orai ataskaitas ir orų prognozės (METAR, TAF).

turimą stotys yra geltonos ir raudonos taškus žemėlapyje.

Perkelti pele per norėdami pamatyti stoties vardą.

Tada spustelėkite, norėdami matyti oro stebėjimo ir prognozės.

Norėdami pakeisti žemėlapį: spustelėkite ant žalios mygtukų su juodo kryžiaus žemyn,; žalią mygtuką su brūkšneliu, jei norite nutolinti; arba žalių rodyklių gretimoms žemėlapius.


METAR-TAF: